logo
Search for airport 
image banner adimage banner adimage banner ad
image banner ad

HADT - Debre Tabor

Located in Debre Tabor, Ethiopia

ICAO - HADT, IATA - DBT

Data provided by Airmate  

General information

Coordinates: N11°58'0" E38°0'0"
Elevation is 8490 feet MSL.
 
View others Airports in Amara

Operational data

Special qualification required
Current time UTC:
Current local time:
Weather at : - ( 0 km )
METAR: KUNV 232153Z 18005KT 10SM CLR 27/17 A3008
View NOTAMs / SUP AIP / TFR affecting this airport [VIEW]
Communications frequencies: [VIEW]

Runways:

RWY identifierQFULength (ft)Width (ft)SurfaceLDA (ft)
1800UNK
3600UNK

Airport contact information

Address: Debre Tabor Ethiopia

Satellite view of HADT